Time;durP1;ratioP1;P1;durP2;ratioP2;P2;SDS_P1;SDS_P2;PMS_P1;PMS_P2;Temp;Humidity;BMP_temperature;BMP_pressure;BME280_temperature;BME280_humidity;BME280_pressure;Samples;Min_cycle;Max_cycle;Signal;HPM_P1;HPM_P2
2022/12/03 00:03:45;;;;;;;10.43;5.93;;;3.10;99.90;;;;;;20782994;28;20029;-42
2022/12/03 00:13:46;;;;;;;18.60;7.47;;;3.00;99.90;;;;;;20791132;28;20523;-41
2022/12/03 00:23:47;;;;;;;12.52;6.88;;;3.00;99.90;;;;;;20790158;28;20115;-41
2022/12/03 00:33:51;;;;;;;16.13;8.60;;;3.00;99.90;;;;;;20788569;28;20068;-42
2022/12/03 00:43:56;;;;;;;17.55;7.28;;;3.00;99.90;;;;;;20789103;28;21827;-41
2022/12/03 00:53:57;;;;;;;12.45;6.45;;;3.00;99.90;;;;;;20790050;28;20077;-41
2022/12/03 01:03:58;;;;;;;9.25;5.80;;;3.00;99.90;;;;;;20787414;28;20059;-42
2022/12/03 01:13:59;;;;;;;13.45;6.88;;;3.00;99.90;;;;;;20784312;28;20052;-41
2022/12/03 01:24:00;;;;;;;9.70;6.70;;;3.10;99.90;;;;;;20779687;28;20147;-41
2022/12/03 01:34:01;;;;;;;14.32;7.55;;;3.00;99.90;;;;;;20777653;28;20519;-41
2022/12/03 01:44:06;;;;;;;15.00;8.32;;;3.10;99.90;;;;;;20793499;28;20079;-41
2022/12/03 01:54:15;;;;;;;15.98;7.68;;;3.10;99.90;;;;;;20779861;28;20570;-42
2022/12/03 02:04:23;;;;;;;14.20;7.28;;;3.00;99.90;;;;;;20785648;28;20076;-42
2022/12/03 02:14:25;;;;;;;14.05;7.13;;;3.00;99.90;;;;;;20793417;28;20037;-42
2022/12/03 02:24:26;;;;;;;14.15;7.28;;;3.10;99.90;;;;;;20766380;28;20667;-42
2022/12/03 02:34:42;;;;;;;11.93;7.15;;;3.10;99.90;;;;;;20781052;28;20499;-41
2022/12/03 02:44:43;;;;;;;15.10;7.78;;;3.10;99.90;;;;;;20788988;28;21872;-42
2022/12/03 02:54:44;;;;;;;14.07;7.55;;;3.20;99.90;;;;;;20776263;28;20621;-41
2022/12/03 03:04:45;;;;;;;14.88;7.15;;;3.10;99.90;;;;;;20776799;28;20134;-42
2022/12/03 03:14:46;;;;;;;12.27;6.65;;;3.10;99.90;;;;;;20802201;28;20083;-42
2022/12/03 03:24:47;;;;;;;10.32;5.43;;;3.20;99.90;;;;;;20790260;28;20071;-42
2022/12/03 03:34:48;;;;;;;14.18;6.43;;;3.20;99.90;;;;;;20794415;28;20071;-42
2022/12/03 03:44:49;;;;;;;10.30;5.47;;;3.30;99.90;;;;;;20799897;28;20723;-41
2022/12/03 03:54:50;;;;;;;14.35;6.72;;;3.30;99.90;;;;;;20788401;28;20453;-41
2022/12/03 04:04:51;;;;;;;13.68;7.20;;;3.30;99.90;;;;;;20789754;28;20038;-42
2022/12/03 04:14:52;;;;;;;12.48;6.65;;;3.30;99.90;;;;;;20795295;28;20080;-42
2022/12/03 04:28:47;;;;;;;11.23;6.70;;;3.30;99.90;;;;;;20794593;28;20127;-42
2022/12/03 04:45:37;;;;;;;14.65;7.93;;;3.50;99.90;;;;;;20779424;28;20148;-41
2022/12/03 04:55:38;;;;;;;14.55;7.28;;;3.50;99.90;;;;;;20777772;28;20041;-42
2022/12/03 05:05:39;;;;;;;13.88;6.45;;;3.50;99.90;;;;;;20776081;28;20029;-41
2022/12/03 05:15:40;;;;;;;15.15;6.90;;;3.50;99.90;;;;;;20780427;28;20063;-41
2022/12/03 05:25:41;;;;;;;16.00;7.43;;;3.40;99.90;;;;;;20776133;28;20405;-42
2022/12/03 05:35:42;;;;;;;15.77;7.88;;;3.50;99.90;;;;;;20767455;28;20525;-41
2022/12/03 05:45:43;;;;;;;14.88;8.75;;;3.50;99.90;;;;;;20770100;28;20672;-41
2022/12/03 05:55:44;;;;;;;12.95;8.73;;;3.50;99.90;;;;;;20773036;28;20073;-41
2022/12/03 06:05:45;;;;;;;18.17;8.90;;;3.50;99.90;;;;;;20771926;28;20159;-41
2022/12/03 06:15:46;;;;;;;15.20;8.65;;;3.50;99.90;;;;;;20774957;28;20042;-41
2022/12/03 06:25:47;;;;;;;14.98;7.80;;;3.50;99.90;;;;;;20763252;28;20535;-41
2022/12/03 06:35:48;;;;;;;16.73;8.25;;;3.50;99.90;;;;;;20770514;28;20514;-42
2022/12/03 06:45:49;;;;;;;19.80;9.35;;;3.40;99.90;;;;;;20788398;28;20798;-41
2022/12/03 06:55:50;;;;;;;13.85;6.95;;;3.50;99.90;;;;;;20781742;28;20049;-41
2022/12/03 07:05:51;;;;;;;17.67;8.00;;;3.50;99.90;;;;;;20786642;28;20046;-42
2022/12/03 07:15:52;;;;;;;12.68;7.53;;;3.40;99.90;;;;;;20790515;28;20044;-42
2022/12/03 07:25:53;;;;;;;14.07;8.27;;;3.50;99.90;;;;;;20776758;28;20030;-42
2022/12/03 07:35:54;;;;;;;17.45;8.55;;;3.50;99.90;;;;;;20778060;28;20045;-42
2022/12/03 07:45:55;;;;;;;14.15;8.40;;;3.50;99.90;;;;;;20794685;28;20042;-41
2022/12/03 07:55:56;;;;;;;11.88;7.13;;;3.30;99.90;;;;;;20780488;28;20163;-41
2022/12/03 08:05:57;;;;;;;13.63;8.18;;;3.40;99.90;;;;;;20773048;28;20080;-41
2022/12/03 08:16:15;;;;;;;17.45;9.52;;;3.40;99.90;;;;;;20787062;28;20077;-41
2022/12/03 08:26:19;;;;;;;;;;;3.40;99.90;;;;;;20772480;28;20457;-41
2022/12/03 08:36:31;;;;;;;14.77;7.40;;;3.30;99.90;;;;;;20793772;28;20046;-41
2022/12/03 08:46:32;;;;;;;15.75;6.82;;;3.30;99.90;;;;;;20784658;28;20069;-42
2022/12/03 08:56:35;;;;;;;13.15;7.28;;;3.30;99.90;;;;;;20725015;28;20073;-42
2022/12/03 09:06:36;;;;;;;15.00;7.10;;;3.20;99.90;;;;;;20720984;28;20042;-42
2022/12/03 09:16:38;;;;;;;18.17;8.52;;;3.20;99.90;;;;;;20691061;28;20045;-42
2022/12/03 09:26:39;;;;;;;16.17;6.95;;;3.00;99.90;;;;;;20723495;28;20050;-42
2022/12/03 09:36:40;;;;;;;18.25;9.57;;;3.10;99.90;;;;;;20744401;28;20098;-42
2022/12/03 09:46:59;;;;;;;16.23;9.45;;;3.10;99.90;;;;;;20752330;28;20053;-42
2022/12/03 09:57:02;;;;;;;18.17;8.77;;;3.10;99.90;;;;;;20770790;28;20134;-42
2022/12/03 10:07:03;;;;;;;24.27;9.90;;;2.90;99.90;;;;;;20755057;28;20514;-42
2022/12/03 10:17:05;;;;;;;18.20;10.38;;;3.10;99.90;;;;;;20765616;28;20122;-42
2022/12/03 10:27:29;;;;;;;22.50;9.75;;;3.00;99.90;;;;;;20782985;28;20128;-42
2022/12/03 10:37:30;;;;;;;19.63;8.95;;;2.90;99.90;;;;;;20790647;28;20171;-42
2022/12/03 10:47:31;;;;;;;21.25;11.43;;;3.00;99.90;;;;;;20789347;28;20033;-42
2022/12/03 10:57:32;;;;;;;18.63;8.82;;;3.00;99.90;;;;;;20757791;28;20121;-42
2022/12/03 11:07:37;;;;;;;14.30;9.13;;;2.60;99.90;;;;;;20775687;28;20354;-42
2022/12/03 11:17:51;;;;;;;21.45;10.60;;;2.70;99.90;;;;;;20776152;28;20171;-42
2022/12/03 11:28:11;;;;;;;20.23;9.93;;;2.80;99.90;;;;;;20764955;28;20868;-42
2022/12/03 11:38:36;;;;;;;22.95;8.48;;;2.70;99.90;;;;;;20768895;28;20183;-41
2022/12/03 11:48:44;;;;;;;14.73;7.18;;;2.70;99.90;;;;;;20821235;28;20033;-42
2022/12/03 11:58:46;;;;;;;15.20;8.13;;;2.70;99.90;;;;;;20824125;28;20718;-42
2022/12/03 12:08:50;;;;;;;19.48;8.57;;;2.60;99.90;;;;;;20826288;28;20052;-42
2022/12/03 12:18:51;;;;;;;20.27;10.52;;;2.50;99.90;;;;;;20802983;28;20579;-42
2022/12/03 12:28:52;;;;;;;18.50;7.22;;;2.40;99.90;;;;;;20783236;28;20220;-41
2022/12/03 12:38:53;;;;;;;13.95;8.23;;;2.50;99.90;;;;;;20779685;28;20408;-41
2022/12/03 12:48:54;;;;;;;16.35;9.02;;;2.40;99.90;;;;;;20791947;28;20033;-42
2022/12/03 12:58:59;;;;;;;14.45;7.57;;;2.50;99.90;;;;;;20784538;28;20072;-42
2022/12/03 13:09:01;;;;;;;17.15;6.93;;;2.50;99.90;;;;;;20783126;28;20136;-42
2022/12/03 13:19:10;;;;;;;23.90;9.00;;;2.50;99.90;;;;;;20770299;28;20179;-42
2022/12/03 13:29:17;;;;;;;18.90;9.40;;;2.60;99.90;;;;;;20807407;28;20076;-42
2022/12/03 13:39:33;;;;;;;20.73;10.85;;;2.40;99.90;;;;;;20805981;28;20046;-42
2022/12/03 13:49:34;;;;;;;21.60;11.23;;;2.30;99.90;;;;;;20791264;28;20338;-41
2022/12/03 13:59:35;;;;;;;26.35;10.93;;;2.20;99.90;;;;;;20790072;28;20485;-42
2022/12/03 14:09:36;;;;;;;21.88;11.15;;;2.20;99.90;;;;;;20804513;28;20519;-41
2022/12/03 14:19:37;;;;;;;27.75;12.13;;;2.30;99.90;;;;;;20793160;28;20060;-42
2022/12/03 14:29:38;;;;;;;26.02;12.23;;;2.30;99.90;;;;;;20793429;28;20053;-42
2022/12/03 14:39:40;;;;;;;15.85;9.00;;;2.20;99.90;;;;;;20790565;28;20052;-41
2022/12/03 14:49:41;;;;;;;24.50;9.77;;;2.20;99.90;;;;;;20806510;28;21133;-41
2022/12/03 14:59:43;;;;;;;18.15;8.40;;;2.20;99.90;;;;;;20791938;28;20042;-41
2022/12/03 15:09:44;;;;;;;19.00;9.82;;;2.20;99.90;;;;;;20800035;28;20091;-42
2022/12/03 15:19:45;;;;;;;20.42;9.27;;;2.00;99.90;;;;;;20816790;28;20067;-42
2022/12/03 15:29:46;;;;;;;17.98;10.73;;;2.00;99.90;;;;;;20802528;28;20034;-42
2022/12/03 15:39:47;;;;;;;15.68;7.43;;;2.00;99.90;;;;;;20800053;28;20056;-42
2022/12/03 15:49:48;;;;;;;20.20;9.57;;;2.00;99.90;;;;;;20804462;28;20045;-41
2022/12/03 15:59:49;;;;;;;20.80;10.90;;;2.10;99.90;;;;;;20807804;28;20436;-41
2022/12/03 16:09:50;;;;;;;23.50;11.82;;;2.10;99.90;;;;;;20808876;28;20827;-42
2022/12/03 16:19:51;;;;;;;23.45;12.30;;;2.10;99.90;;;;;;20818986;28;20052;-42
2022/12/03 16:29:52;;;;;;;23.52;10.48;;;2.10;99.90;;;;;;20805762;28;20380;-42
2022/12/03 16:39:53;;;;;;;17.88;9.43;;;2.20;99.90;;;;;;20793081;28;20091;-41
2022/12/03 16:49:54;;;;;;;21.63;8.98;;;2.00;99.90;;;;;;20802220;28;20037;-42
2022/12/03 16:59:55;;;;;;;19.35;11.82;;;2.00;99.90;;;;;;20811795;28;20041;-42
2022/12/03 17:09:56;;;;;;;23.65;10.85;;;2.00;99.90;;;;;;20808998;28;20036;-41
2022/12/03 17:19:57;;;;;;;30.05;13.65;;;2.00;99.90;;;;;;20792461;28;20123;-41
2022/12/03 17:29:58;;;;;;;19.55;11.57;;;1.90;99.90;;;;;;20787666;28;20041;-41
2022/12/03 17:39:59;;;;;;;20.40;9.63;;;1.90;99.90;;;;;;20804849;28;20421;-41
2022/12/03 17:50:00;;;;;;;28.13;13.32;;;1.90;99.90;;;;;;20792089;28;20644;-42
2022/12/03 18:00:01;;;;;;;20.35;10.05;;;1.70;99.90;;;;;;20789613;28;20574;-41
2022/12/03 18:10:03;;;;;;;25.40;10.77;;;1.70;99.90;;;;;;20790096;28;20045;-42
2022/12/03 18:20:05;;;;;;;26.20;13.68;;;1.70;99.90;;;;;;20787317;28;20364;-41
2022/12/03 18:30:06;;;;;;;21.40;11.02;;;1.70;99.90;;;;;;20785644;28;20127;-42
2022/12/03 18:40:16;;;;;;;28.00;13.13;;;1.70;99.90;;;;;;20794545;28;20099;-42
2022/12/03 18:50:17;;;;;;;31.02;13.95;;;1.70;99.90;;;;;;20814067;28;20036;-41
2022/12/03 19:00:18;;;;;;;22.95;12.07;;;1.70;99.90;;;;;;20816901;28;20111;-42
2022/12/03 19:10:20;;;;;;;31.80;13.10;;;1.70;99.90;;;;;;20804754;28;20080;-42
2022/12/03 19:20:21;;;;;;;34.13;14.80;;;1.60;99.90;;;;;;20794105;28;20111;-42
2022/12/03 19:30:22;;;;;;;24.17;11.43;;;1.50;99.90;;;;;;20804577;28;20095;-41
2022/12/03 19:40:23;;;;;;;24.75;10.73;;;1.60;99.90;;;;;;20807373;28;20050;-42
2022/12/03 19:50:24;;;;;;;33.22;14.30;;;1.60;99.90;;;;;;20800115;28;20048;-41
2022/12/03 20:00:25;;;;;;;19.60;10.70;;;1.50;99.90;;;;;;20798666;28;20057;-42
2022/12/03 20:10:26;;;;;;;19.08;9.90;;;1.50;99.90;;;;;;20795435;28;20037;-41
2022/12/03 20:20:27;;;;;;;17.95;11.07;;;1.50;99.90;;;;;;20806914;28;20049;-41
2022/12/03 20:30:28;;;;;;;16.52;9.85;;;1.50;99.90;;;;;;20800336;28;20042;-42
2022/12/03 20:40:29;;;;;;;24.60;11.32;;;1.50;99.90;;;;;;20795017;28;20042;-42
2022/12/03 20:50:30;;;;;;;22.23;10.40;;;1.50;99.90;;;;;;20805524;28;20448;-42
2022/12/03 21:00:31;;;;;;;20.92;10.50;;;1.50;99.90;;;;;;20787216;28;20064;-42
2022/12/03 21:10:43;;;;;;;16.17;10.40;;;1.50;99.90;;;;;;20795484;28;20087;-42
2022/12/03 21:20:46;;;;;;;21.30;10.63;;;1.40;99.90;;;;;;20791509;28;20277;-41
2022/12/03 21:30:47;;;;;;;23.63;11.07;;;1.40;99.90;;;;;;20768528;28;20045;-42
2022/12/03 21:40:48;;;;;;;17.08;10.27;;;1.50;99.90;;;;;;20772051;28;20044;-42
2022/12/03 21:51:02;;;;;;;36.35;15.40;;;1.40;99.90;;;;;;20764886;28;20524;-42
2022/12/03 22:01:20;;;;;;;19.58;8.32;;;1.30;99.90;;;;;;20748392;28;21886;-41
2022/12/03 22:11:23;;;;;;;21.80;12.43;;;1.30;99.90;;;;;;20710623;28;20045;-42
2022/12/03 22:21:24;;;;;;;20.17;12.48;;;1.30;99.90;;;;;;20789654;28;20052;-42
2022/12/03 22:31:25;;;;;;;23.65;9.40;;;1.40;99.90;;;;;;20825793;28;20504;-41
2022/12/03 22:41:26;;;;;;;16.80;8.75;;;1.30;99.90;;;;;;20796335;28;20397;-42
2022/12/03 22:51:27;;;;;;;20.70;11.50;;;1.30;99.90;;;;;;20800659;28;20422;-42
2022/12/03 23:01:31;;;;;;;27.40;11.13;;;1.40;99.90;;;;;;20790749;28;20080;-42
2022/12/03 23:11:33;;;;;;;24.60;10.77;;;1.30;99.90;;;;;;20805857;28;20041;-41
2022/12/03 23:21:34;;;;;;;23.48;12.40;;;1.40;99.90;;;;;;20792934;28;22261;-42
2022/12/03 23:31:35;;;;;;;20.90;11.80;;;1.40;99.90;;;;;;20788471;28;20135;-41
2022/12/03 23:41:36;;;;;;;26.30;12.75;;;1.30;99.90;;;;;;20803349;28;20278;-42
2022/12/03 23:51:37;;;;;;;25.40;12.88;;;1.30;99.90;;;;;;20790353;28;20788;-41
